Time;durP1;ratioP1;P1;durP2;ratioP2;P2;SDS_P1;SDS_P2;PMS_P1;PMS_P2;Temp;Humidity;BMP_temperature;BMP_pressure;BME280_temperature;BME280_humidity;BME280_pressure;Samples;Min_cycle;Max_cycle;Signal;HPM_P1;HPM_P2
2021/07/25 02:54:02;;;;;;;18.52;13.55;;;;;;;18.09;100.00;101089.09;1597883;87;21140;-93
2021/07/25 02:57:28;;;;;;;31.12;13.25;;;;;;;18.12;100.00;101090.11;1502350;93;21246;-94
2021/07/25 03:01:17;;;;;;;;;;;;;;;;;;;;;
2021/07/25 03:03:29;;;;;;;16.97;12.68;;;;;;;18.09;100.00;101093.05;1426534;97;21100;-92
2021/07/25 03:09:17;;;;;;;16.15;14.13;;;;;;;18.04;100.00;101099.27;1447299;95;21114;-90
2021/07/25 03:11:46;;;;;;;16.07;13.65;;;;;;;18.09;100.00;101099.62;1497091;94;21169;-87
2021/07/25 03:14:22;;;;;;;22.02;14.23;;;;;;;18.09;100.00;101103.11;1530313;90;21507;-89
2021/07/25 03:16:53;;;;;;;17.73;15.20;;;;;;;18.10;100.00;101103.45;1543613;90;21669;-91
2021/07/25 03:19:29;;;;;;;24.75;17.90;;;;;;;18.13;100.00;101109.72;1516626;92;21246;-90
2021/07/25 03:21:58;;;;;;;30.32;16.80;;;;;;;18.18;100.00;101109.26;1555161;89;21072;-91
2021/07/25 03:29:10;;;;;;;;;;;;;;;;;;;;;
2021/07/25 03:40:45;;;;;;;;;;;;;;;;;;;;;
2021/07/25 03:50:25;;;;;;;;;;;;;;;;;;;;;
2021/07/25 03:53:05;;;;;;;;;;;;;;;;;;;;;
2021/07/25 03:55:25;;;;;;;21.60;17.77;;;;;;;18.62;100.00;101145.31;1255661;110;22076;-92
2021/07/25 03:57:58;;;;;;;20.55;17.87;;;;;;;18.64;100.00;101144.67;1358432;99;21137;-91
2021/07/25 04:00:28;;;;;;;22.82;18.20;;;;;;;18.70;100.00;101148.00;1377916;100;21204;-89
2021/07/25 04:03:07;;;;;;;;;;;;;;;;;;;;;
2021/07/25 04:05:53;;;;;;;20.77;18.37;;;;;;;18.83;100.00;101152.85;1437838;96;21273;-93
2021/07/25 04:08:32;;;;;;;;;;;;;;;18.86;100.00;101152.55;1490167;93;21171;-91
2021/07/25 04:11:03;;;;;;;22.02;17.42;;;;;;;18.87;100.00;101147.58;1513626;91;20473;-89
2021/07/25 04:13:32;;;;;;;22.82;17.85;;;;;;;18.86;100.00;101153.03;1532475;91;21083;-89
2021/07/25 04:16:13;;;;;;;22.13;17.30;;;;;;;18.84;100.00;101151.87;1533988;91;22130;-96
2021/07/25 04:18:42;;;;;;;20.75;17.32;;;;;;;18.87;100.00;101154.69;1533166;91;21186;-95
2021/07/25 04:21:07;;;;;;;19.90;17.75;;;;;;;18.96;100.00;101151.61;1534494;91;21270;-90
2021/07/25 04:23:41;;;;;;;20.40;17.05;;;;;;;19.05;100.00;101154.63;1505281;91;21121;-89
2021/07/25 04:26:09;;;;;;;19.82;16.95;;;;;;;19.17;100.00;101159.13;1570052;89;21198;-89
2021/07/25 04:28:39;;;;;;;19.45;16.35;;;;;;;19.27;100.00;101157.71;1576443;89;21220;-93
2021/07/25 04:31:06;;;;;;;23.32;15.88;;;;;;;19.36;100.00;101160.21;1548639;89;21217;-89
2021/07/25 04:33:34;;;;;;;22.98;16.65;;;;;;;19.41;100.00;101165.02;1582760;88;21261;-87
2021/07/25 04:36:29;;;;;;;22.37;14.70;;;;;;;19.48;100.00;101164.70;1605759;87;21625;-92
2021/07/25 04:39:13;;;;;;;19.27;13.75;;;;;;;19.55;100.00;101167.03;1596368;87;21359;-95
2021/07/25 05:28:09;;;;;;;14.45;10.98;;;;;;;20.91;100.00;101186.58;1369353;101;21134;-88
2021/07/25 05:30:54;;;;;;;15.80;11.30;;;;;;;21.03;100.00;101183.88;1425052;95;21266;-90
2021/07/25 05:33:24;;;;;;;16.90;11.33;;;;;;;21.12;100.00;101188.66;1473662;94;21204;-90
2021/07/25 05:35:51;;;;;;;15.70;10.63;;;;;;;21.23;100.00;101190.92;1530464;89;21243;-86
2021/07/25 05:38:21;;;;;;;17.25;11.30;;;;;;;21.34;100.00;101193.71;1565533;89;21181;-90
2021/07/25 05:41:04;;;;;;;;;;;;;;;;;;;;;
2021/07/25 05:46:38;;;;;;;24.47;12.77;;;;;;;21.57;100.00;101184.98;1440195;94;21214;-91
2021/07/25 05:49:09;;;;;;;20.80;12.95;;;;;;;21.70;100.00;101189.75;1536237;87;21735;-89
2021/07/25 05:51:36;;;;;;;23.40;12.35;;;;;;;21.78;100.00;101191.50;1574082;89;21294;-88
2021/07/25 05:54:06;;;;;;;20.62;13.03;;;;;;;21.86;100.00;101188.80;1559977;90;21854;-89
2021/07/25 05:56:32;;;;;;;23.00;13.32;;;;;;;21.93;100.00;101188.41;1578940;89;21099;-88
2021/07/25 05:58:59;;;;;;;25.75;14.25;;;;;;;22.01;100.00;101179.59;1579416;89;21110;-89
2021/07/25 06:01:27;;;;;;;20.15;14.10;;;;;;;22.09;100.00;101178.20;1573222;89;21650;-90
2021/07/25 06:03:54;;;;;;;22.13;13.18;;;;;;;22.18;100.00;101179.80;1575407;89;21053;-89
2021/07/25 06:06:21;;;;;;;20.48;12.93;;;;;;;22.27;100.00;101177.08;1553814;90;21068;-88
2021/07/25 06:08:50;;;;;;;16.00;12.70;;;;;;;22.36;100.00;101185.25;1633363;86;21108;-88
2021/07/25 06:11:22;;;;;;;16.57;11.65;;;;;;;22.43;100.00;101178.77;1566456;87;21117;-88
2021/07/25 06:13:51;;;;;;;18.27;13.05;;;;;;;22.52;100.00;101180.34;1612938;87;21144;-88
2021/07/25 06:16:18;;;;;;;17.30;12.73;;;;;;;22.58;100.00;101175.63;1615314;87;21147;-87
2021/07/25 06:18:48;;;;;;;15.35;12.98;;;;;;;22.67;100.00;101181.70;1619988;86;21561;-89
2021/07/25 06:21:19;;;;;;;18.10;12.33;;;;;;;22.77;100.00;101186.73;1611889;87;20980;-89
2021/07/25 06:23:49;;;;;;;21.52;13.45;;;;;;;22.85;100.00;101190.11;1583185;87;21067;-89
2021/07/25 06:26:16;;;;;;;17.25;14.28;;;;;;;22.96;100.00;101184.84;1626547;87;21215;-88
2021/07/25 06:28:45;;;;;;;25.30;13.50;;;;;;;23.09;100.00;101187.38;1622687;87;21129;-88
2021/07/25 06:31:15;;;;;;;18.87;13.43;;;;;;;23.20;100.00;101186.91;1605151;87;21812;-89
2021/07/25 06:33:42;;;;;;;18.30;12.87;;;;;;;23.34;100.00;101185.77;1626399;87;21081;-90
2021/07/25 06:36:12;;;;;;;21.37;12.35;;;;;;;23.44;100.00;101185.78;1616249;87;21081;-88
2021/07/25 06:38:42;;;;;;;17.25;13.00;;;;;;;23.57;100.00;101187.77;1597079;87;21081;-90
2021/07/25 06:41:09;;;;;;;18.70;12.50;;;;;;;23.68;100.00;101193.59;1614520;87;21155;-92
2021/07/25 06:43:37;;;;;;;15.98;12.23;;;;;;;23.76;100.00;101191.65;1620855;87;21814;-88
2021/07/25 06:46:13;;;;;;;15.83;12.65;;;;;;;23.85;100.00;101199.50;1627307;87;21078;-91
2021/07/25 06:48:40;;;;;;;12.35;11.03;;;;;;;23.95;100.00;101202.72;1627174;87;21124;-88
2021/07/25 06:51:07;;;;;;;14.20;10.98;;;;;;;24.07;100.00;101204.36;1605770;87;21112;-87
2021/07/25 06:53:45;;;;;;;;;;;;;;;;;;;;;
2021/07/25 06:56:09;;;;;;;13.83;10.10;;;;;;;24.28;100.00;101205.34;1615354;86;21085;-87
2021/07/25 06:58:36;;;;;;;17.20;9.80;;;;;;;24.38;100.00;101196.53;1597307;88;21085;-87
2021/07/25 07:01:03;;;;;;;13.35;10.30;;;;;;;24.46;100.00;101197.72;1576622;89;21059;-86
2021/07/25 07:03:30;;;;;;;14.05;10.63;;;;;;;24.55;100.00;101195.72;1558328;89;20993;-88
2021/07/25 07:05:57;;;;;;;18.30;10.68;;;;;;;24.65;100.00;101198.03;1551227;90;21239;-88
2021/07/25 07:08:25;;;;;;;14.33;10.13;;;;;;;24.75;100.00;101195.87;1553674;90;21569;-87
2021/07/25 07:10:52;;;;;;;14.30;10.15;;;;;;;24.84;100.00;101197.38;1551252;90;20978;-87
2021/07/25 07:13:20;;;;;;;11.40;9.48;;;;;;;24.96;100.00;101199.47;1556485;90;21100;-86
2021/07/25 07:15:48;;;;;;;12.10;10.90;;;;;;;25.05;100.00;101206.28;1573220;89;21126;-88
2021/07/25 07:18:17;;;;;;;17.42;11.10;;;;;;;25.13;100.00;101206.11;1552923;90;21037;-87
2021/07/25 07:20:46;;;;;;;10.82;9.63;;;;;;;25.23;100.00;101202.27;1561333;90;21046;-87
2021/07/25 07:25:47;;;;;;;;;;;;;;;25.42;100.00;101205.56;1570121;90;21540;-87
2021/07/25 07:28:16;;;;;;;13.90;9.18;;;;;;;25.53;100.00;101202.83;1556319;90;20565;-88
2021/07/25 07:30:44;;;;;;;10.00;8.00;;;;;;;25.65;100.00;101201.20;1597094;87;21145;-85
2021/07/25 07:33:18;;;;;;;13.68;9.28;;;;;;;25.75;100.00;101200.83;1577917;88;21226;-88
2021/07/25 07:35:46;;;;;;;10.50;8.90;;;;;;;25.87;100.00;101197.55;1566371;90;21179;-87
2021/07/25 07:38:24;;;;;;;;;;;;;;;;;;;;;
2021/07/25 07:40:49;;;;;;;12.05;10.00;;;;;;;26.11;100.00;101200.99;1566659;89;21124;-85
2021/07/25 07:43:44;;;;;;;;;;;;;;;;;;;;;
2021/07/25 07:45:53;;;;;;;14.65;9.58;;;;;;;26.34;100.00;101197.61;1424684;95;21165;-87
2021/07/25 07:48:32;;;;;;;;;;;;;;;;;;;;;
2021/07/25 07:50:53;;;;;;;10.08;8.73;;;;;;;26.56;100.00;101199.55;1570081;90;21117;-90
2021/07/25 07:53:24;;;;;;;14.78;8.73;;;;;;;26.67;100.00;101192.22;1505055;93;21199;-89
2021/07/25 07:55:57;;;;;;;11.60;8.70;;;;;;;26.75;100.00;101197.86;1501393;93;21158;-88
2021/07/25 07:58:26;;;;;;;9.40;8.50;;;;;;;26.83;100.00;101196.34;1487708;93;21033;-85
2021/07/25 08:03:31;;;;;;;12.47;8.93;;;;;;;26.95;99.11;101200.52;1508338;93;21105;-88
2021/07/25 08:06:04;;;;;;;9.73;7.45;;;;;;;27.00;100.00;101198.02;1499246;94;21104;-87
2021/07/25 08:08:34;;;;;;;11.75;8.38;;;;;;;27.11;94.35;101198.41;1519776;92;21310;-86
2021/07/25 08:11:02;;;;;;;11.65;8.13;;;;;;;27.22;99.13;101201.73;1514278;92;21133;-86
2021/07/25 08:13:43;;;;;;;11.57;8.58;;;;;;;27.35;94.20;101203.03;1472270;94;21206;-88
2021/07/25 08:18:58;;;;;;;;;;;;;;;;;;;;;
2021/07/25 08:21:24;;;;;;;;;;;;;;;;;;;;;
2021/07/25 08:23:58;;;;;;;10.20;7.50;;;;;;;27.83;79.66;101208.42;1421434;98;21615;-90
2021/07/25 08:26:31;;;;;;;;;;;;;;;;;;;;;
2021/07/25 08:29:05;;;;;;;;;;;;;;;;;;;;;
2021/07/25 08:31:40;;;;;;;;;;;;;;;;;;;;;
2021/07/25 08:34:04;;;;;;;10.80;7.70;;;;;;;28.37;90.03;101218.73;1358110;100;21227;-87
2021/07/25 08:39:12;;;;;;;9.48;7.65;;;;;;;28.55;75.62;101209.10;1337455;104;21071;-90
2021/07/25 08:42:22;;;;;;;;;;;;;;;;;;;;;
2021/07/25 08:44:56;;;;;;;7.65;6.95;;;;;;;28.71;84.57;101205.07;1318207;107;21246;-90
2021/07/25 08:47:40;;;;;;;;;;;;;;;;;;;;;
2021/07/25 08:50:10;;;;;;;10.68;7.33;;;;;;;28.85;81.57;101205.72;1250691;112;21679;-88
2021/07/25 08:52:55;;;;;;;;;;;;;;;;;;;;;
2021/07/25 08:56:17;;;;;;;;;;;;;;;;;;;;;
2021/07/25 08:59:11;;;;;;;13.93;7.20;;;;;;;29.15;76.41;101192.38;1236337;113;21272;-88
2021/07/25 09:01:51;;;;;;;8.93;7.05;;;;;;;29.31;72.05;101201.70;1254234;111;21819;-89
2021/07/25 09:04:30;;;;;;;10.08;7.15;;;;;;;29.38;63.42;101196.23;1280926;108;21687;-88
2021/07/25 09:07:08;;;;;;;;;;;;;;;;;;;;;
2021/07/25 09:09:29;;;;;;;9.58;8.03;;;;;;;29.55;73.14;101195.89;1292827;107;21317;-87
2021/07/25 09:12:01;;;;;;;8.35;7.22;;;;;;;29.58;62.01;101196.80;1324931;105;21154;-90
2021/07/25 09:14:43;;;;;;;;;;;;;;;;;;;;;
2021/07/25 09:17:07;;;;;;;9.50;6.37;;;;;;;29.64;60.97;101196.41;1305014;106;21512;-89
2021/07/25 09:20:10;;;;;;;8.70;6.95;;;;;;;29.69;60.75;101193.01;1322280;106;21133;-88
2021/07/25 09:22:56;;;;;;;10.20;6.30;;;;;;;29.73;58.45;101194.20;1379782;102;21310;-88
2021/07/25 09:25:34;;;;;;;11.08;6.75;;;;;;;29.82;66.04;101190.65;1396294;100;21083;-89
2021/07/25 09:28:18;;;;;;;;;;;;;;;;;;;;;
2021/07/25 09:30:41;;;;;;;9.20;7.37;;;;;;;29.93;55.63;101189.06;1408152;99;21204;-91
2021/07/25 09:33:24;;;;;;;7.72;6.90;;;;;;;29.98;53.43;101193.23;1467919;93;21073;-89
2021/07/25 09:40:21;;;;;;;13.00;6.80;;;;;;;29.95;50.32;101199.05;1493495;94;21204;-89
2021/07/25 09:52:11;;;;;;;;;;;;;;;;;;;;;
2021/07/25 09:54:35;;;;;;;11.20;6.97;;;;;;;29.78;46.77;101186.80;1370562;101;21100;-88
2021/07/25 09:57:18;;;;;;;11.80;6.35;;;;;;;29.82;46.55;101186.63;1392049;100;21915;-89
2021/07/25 09:59:51;;;;;;;8.80;6.83;;;;;;;29.92;44.61;101195.50;1393746;100;21263;-85
2021/07/25 10:02:49;;;;;;;;;;;;;;;;;;;;;
2021/07/25 10:05:34;;;;;;;;;;;;;;;;;;;;;
2021/07/25 10:08:10;;;;;;;;;;;;;;;;;;;;;
2021/07/25 10:10:35;;;;;;;7.80;6.92;;;;;;;29.95;42.26;101191.83;1327342;106;21274;-85
2021/07/25 10:13:15;;;;;;;;;;;;;;;;;;;;;
2021/07/25 10:15:52;;;;;;;10.58;7.50;;;;;;;29.87;42.70;101190.26;1334037;106;21153;-89
2021/07/25 10:18:21;;;;;;;10.38;7.10;;;;;;;29.96;45.56;101196.66;1325700;106;22271;-87
2021/07/25 10:33:28;;;;;;;9.88;6.53;;;;;;;30.83;42.97;101184.40;1853015;76;22633;-88
2021/07/25 10:36:12;;;;;;;;;;;;;;;;;;;;;
2021/07/25 10:38:30;;;;;;;9.25;6.70;;;;;;;31.06;44.32;101191.56;1785899;79;21241;-89
2021/07/25 10:41:00;;;;;;;8.70;6.20;;;;;;;31.15;43.32;101190.16;1751404;79;20953;-87
2021/07/25 10:43:37;;;;;;;9.10;6.58;;;;;;;31.23;43.03;101192.17;1796595;79;21520;-85
2021/07/25 10:46:18;;;;;;;7.28;5.72;;;;;;;31.28;41.61;101191.75;1765439;79;20941;-92
2021/07/25 10:49:43;;;;;;;;;;;;;;;;;;;;;
2021/07/25 10:52:16;;;;;;;11.48;6.40;;;;;;;31.31;39.64;101181.87;1619459;84;21106;-88
2021/07/25 10:57:19;;;;;;;7.12;6.30;;;;;;;31.44;39.71;101187.48;1848291;75;22412;-85
2021/07/25 10:59:58;;;;;;;6.15;5.65;;;;;;;31.43;40.79;101187.19;1771480;78;21452;-87
2021/07/25 11:02:32;;;;;;;10.23;6.30;;;;;;;31.43;39.16;101184.50;1743905;81;21081;-87
2021/07/25 11:05:16;;;;;;;;;;;;;;;;;;;;;
2021/07/25 11:08:08;;;;;;;;;;;;;;;;;;;;;
2021/07/25 11:10:36;;;;;;;9.50;6.47;;;;;;;31.39;44.77;101190.06;1505879;94;21196;-88
2021/07/25 11:13:21;;;;;;;;;;;;;;;;;;;;;
2021/07/25 11:15:53;;;;;;;;;;;;;;;;;;;;;
2021/07/25 11:18:40;;;;;;;;;;;;;;;;;;;;;
2021/07/25 11:21:14;;;;;;;;;;;;;;;;;;;;;
2021/07/25 11:23:51;;;;;;;;;;;;;;;;;;;;;
2021/07/25 11:26:44;;;;;;;;;;;;;;;;;;;;;
2021/07/25 11:29:21;;;;;;;;;;;;;;;;;;;;;
2021/07/25 11:31:57;;;;;;;;;;;;;;;;;;;;;
2021/07/25 11:34:33;;;;;;;7.35;6.55;;;;;;;31.44;41.08;101187.48;1297392;107;21290;-84
2021/07/25 11:37:31;;;;;;;;;;;;;;;;;;;;;
2021/07/25 11:40:02;;;;;;;;;;;;;;;;;;;;;
2021/07/25 11:42:36;;;;;;;;;;;;;;;;;;;;;
2021/07/25 11:45:20;;;;;;;;;;;;;;;;;;;;;
2021/07/25 11:48:09;;;;;;;;;;;;;;;;;;;;;
2021/07/25 11:53:29;;;;;;;6.97;6.03;;;;;;;30.93;39.50;101182.44;1362356;102;21135;-84
2021/07/25 11:56:14;;;;;;;;;;;;;;;;;;;;;
2021/07/25 11:58:38;;;;;;;8.43;6.47;;;;;;;31.09;42.27;101183.54;1400943;100;21171;-87
2021/07/25 12:01:46;;;;;;;;;;;;;;;;;;;;;
2021/07/25 12:04:35;;;;;;;;;;;;;;;;;;;;;
2021/07/25 12:07:13;;;;;;;11.38;6.37;;;;;;;31.42;40.21;101171.27;1374895;103;21068;-85
2021/07/25 12:10:07;;;;;;;;;;;;;;;;;;;;;
2021/07/25 12:13:20;;;;;;;;;;;;;;;;;;;;;
2021/07/25 12:19:14;;;;;;;;;;;;;;;;;;;;;
2021/07/25 12:26:11;;;;;;;;;;;;;;;;;;;;;
2021/07/25 12:29:37;;;;;;;;;;;;;;;;;;;;;
2021/07/25 12:32:51;;;;;;;7.35;5.80;;;;;;;31.29;38.13;101171.88;1245752;113;21342;-86
2021/07/25 12:35:41;;;;;;;;;;;;;;;;;;;;;
2021/07/25 12:38:28;;;;;;;;;;;;;;;;;;;;;
2021/07/25 12:41:03;;;;;;;6.78;6.08;;;;;;;31.43;37.72;101165.67;1269920;110;21655;-87
2021/07/25 12:47:34;;;;;;;8.63;6.42;;;;;;;31.64;37.94;101172.73;1255197;112;21974;-87
2021/07/25 12:50:27;;;;;;;;;;;;;;;;;;;;;
2021/07/25 12:54:00;;;;;;;;;;;;;;;;;;;;;
2021/07/25 12:56:35;;;;;;;8.15;6.30;;;;;;;31.68;39.10;101167.70;1311298;106;21124;-87
2021/07/25 12:59:07;;;;;;;6.92;6.22;;;;;;;31.59;40.22;101170.77;1378534;93;21266;-87
2021/07/25 13:05:06;;;;;;;;;;;;;;;;;;;;;
2021/07/25 13:25:06;;;;;;;7.40;6.37;;;;;;;32.14;37.37;101171.66;1586223;89;21132;-90
2021/07/25 13:57:59;;;;;;;;;;;;;;;;;;;;;
2021/07/25 14:42:24;;;;;;;9.58;6.40;;;;;;;31.27;36.23;101166.45;1665937;83;21110;-86
2021/07/25 14:44:55;;;;;;;9.78;6.17;;;;;;;31.24;37.66;101169.09;1647954;85;21026;-89
2021/07/25 14:47:27;;;;;;;7.78;5.92;;;;;;;31.12;38.81;101166.46;1687463;83;21212;-87
2021/07/25 14:50:04;;;;;;;11.78;6.72;;;;;;;30.99;39.22;101168.03;1688210;83;21085;-89
2021/07/25 14:52:42;;;;;;;7.37;6.28;;;;;;;30.91;39.86;101169.25;1696397;82;21648;-88
2021/07/25 14:55:12;;;;;;;9.05;6.40;;;;;;;30.91;42.13;101167.06;1715543;82;21144;-91
2021/07/25 14:57:48;;;;;;;8.65;6.37;;;;;;;30.91;41.31;101169.75;1759575;79;21572;-90
2021/07/25 15:00:18;;;;;;;7.58;6.72;;;;;;;30.88;40.63;101166.22;1810870;77;20963;-86
2021/07/25 15:02:45;;;;;;;8.43;7.00;;;;;;;30.88;40.27;101160.84;1769783;78;21070;-87
2021/07/25 15:05:16;;;;;;;12.47;6.75;;;;;;;30.90;40.45;101166.27;1808036;77;20935;-87
2021/07/25 15:07:50;;;;;;;14.20;6.95;;;;;;;30.92;41.97;101163.33;1792922;78;21093;-86
2021/07/25 15:10:17;;;;;;;11.93;9.90;;;;;;;30.91;39.54;101163.03;1723342;82;21070;-84
2021/07/25 15:12:46;;;;;;;21.52;10.55;;;;;;;30.88;38.16;101166.22;1771285;80;21612;-87
2021/07/25 15:15:13;;;;;;;10.15;8.03;;;;;;;30.81;38.82;101165.80;1727333;80;21038;-89
2021/07/25 15:17:40;;;;;;;12.60;7.17;;;;;;;30.76;38.43;101168.40;1741314;80;21541;-87
2021/07/25 15:20:15;;;;;;;11.65;8.33;;;;;;;30.69;37.94;101167.72;1738999;81;21003;-92
2021/07/25 15:22:47;;;;;;;9.43;7.78;;;;;;;30.65;40.07;101163.85;1831878;77;21477;-89
2021/07/25 15:25:17;;;;;;;10.68;7.97;;;;;;;30.64;40.87;101167.62;1808321;78;21054;-89
2021/07/25 15:27:46;;;;;;;10.50;8.18;;;;;;;30.58;41.09;101165.34;1791161;77;21126;-85
2021/07/25 15:30:19;;;;;;;11.70;8.08;;;;;;;30.48;44.97;101164.58;1778204;78;21082;-90
2021/07/25 15:32:46;;;;;;;10.25;8.28;;;;;;;30.38;42.68;101161.66;1758954;79;21468;-88
2021/07/25 15:35:17;;;;;;;9.95;7.60;;;;;;;30.34;43.30;101165.85;1776440;78;21006;-87
2021/07/25 16:25:58;;;;;;;30.92;9.80;;;;;;;29.20;57.35;101175.11;1244110;111;21802;-90
2021/07/25 16:28:37;;;;;;;;;;;;;;;;;;;;;
2021/07/25 16:31:12;;;;;;;20.15;9.40;;;;;;;28.96;66.83;101176.31;1454274;96;21173;-89
2021/07/25 16:33:45;;;;;;;56.50;12.15;;;;;;;28.89;68.72;101181.47;1535144;90;21056;-93
2021/07/25 16:36:25;;;;;;;94.37;13.08;;;;;;;28.81;77.91;101183.91;1596376;88;21061;-88
2021/07/25 16:39:11;;;;;;;;;;;;;;;;;;;;;
2021/07/25 16:41:34;;;;;;;207.67;21.10;;;;;;;28.65;100.00;101186.65;1803609;78;21065;-87
2021/07/25 16:44:02;;;;;;;244.03;22.82;;;;;;;28.56;100.00;101183.45;1751445;79;21097;-88
2021/07/25 16:46:29;;;;;;;207.20;19.77;;;;;;;28.48;100.00;101183.21;1808038;79;21904;-88
2021/07/25 16:48:56;;;;;;;128.60;14.43;;;;;;;28.40;100.00;101183.49;1808447;78;21049;-86
2021/07/25 16:51:26;;;;;;;123.58;14.53;;;;;;;28.31;100.00;101182.97;1776762;79;21030;-86
2021/07/25 16:53:55;;;;;;;48.58;12.30;;;;;;;28.25;100.00;101189.71;1810561;77;21042;-87
2021/07/25 16:56:22;;;;;;;57.10;11.38;;;;;;;28.15;100.00;101183.52;1792598;79;21050;-88
2021/07/25 16:58:51;;;;;;;31.85;9.80;;;;;;;28.06;100.00;101180.29;1813536;78;21019;-87
2021/07/25 17:01:18;;;;;;;30.20;10.20;;;;;;;27.95;100.00;101184.46;1792870;79;20975;-85
2021/07/25 17:03:45;;;;;;;25.92;10.05;;;;;;;27.86;100.00;101181.75;1813697;77;21110;-85
2021/07/25 17:06:12;;;;;;;28.67;10.35;;;;;;;27.78;100.00;101181.51;1792412;79;21519;-87
2021/07/25 17:08:40;;;;;;;47.10;11.28;;;;;;;27.70;100.00;101179.09;1793145;78;20987;-87
2021/07/25 17:11:13;;;;;;;43.92;10.58;;;;;;;27.63;100.00;101176.45;1813189;78;21408;-89
2021/07/25 17:13:42;;;;;;;36.10;10.53;;;;;;;27.53;100.00;101178.77;1771727;79;20963;-87
2021/07/25 17:16:10;;;;;;;26.62;10.78;;;;;;;27.43;100.00;101179.78;1771205;79;21052;-87
2021/07/25 17:18:38;;;;;;;30.30;11.10;;;;;;;27.28;100.00;101188.84;1792794;79;21054;-88
2021/07/25 17:21:10;;;;;;;23.18;10.32;;;;;;;27.12;100.00;101188.02;1813063;77;20991;-90
2021/07/25 17:23:37;;;;;;;19.55;10.35;;;;;;;26.98;100.00;101188.05;1810741;77;21078;-87
2021/07/25 17:26:04;;;;;;;24.80;11.40;;;;;;;26.85;100.00;101196.11;1812167;79;21513;-87
2021/07/25 17:28:31;;;;;;;35.50;15.40;;;;;;;26.70;100.00;101201.16;1774409;79;21080;-87
2021/07/25 17:30:58;;;;;;;100.02;21.30;;;;;;;26.57;100.00;101199.83;1809210;78;20975;-88
2021/07/25 17:33:27;;;;;;;69.45;24.60;;;;;;;26.45;100.00;101200.48;1777173;79;21003;-86
2021/07/25 17:35:54;;;;;;;50.12;21.90;;;;;;;26.34;100.00;101201.09;1807470;78;21007;-90
2021/07/25 17:38:21;;;;;;;50.58;22.87;;;;;;;26.26;100.00;101199.96;1807931;78;21105;-87
2021/07/25 17:40:48;;;;;;;48.13;23.73;;;;;;;26.17;100.00;101204.70;1813001;77;21599;-87
2021/07/25 17:43:15;;;;;;;35.17;22.25;;;;;;;26.07;100.00;101204.24;1804280;78;21002;-90
2021/07/25 17:45:46;;;;;;;38.42;18.40;;;;;;;25.98;100.00;101211.64;1808920;78;21061;-87
2021/07/25 17:48:13;;;;;;;26.02;15.48;;;;;;;25.87;100.00;101210.89;1776871;77;20994;-86
2021/07/25 17:50:40;;;;;;;33.05;17.52;;;;;;;25.79;100.00;101214.58;1807877;78;21623;-88
2021/07/25 17:53:07;;;;;;;29.70;16.57;;;;;;;25.72;100.00;101221.23;1807967;78;21088;-86
2021/07/25 17:55:35;;;;;;;33.55;17.52;;;;;;;25.69;100.00;101224.28;1807919;78;20974;-86
2021/07/25 17:58:02;;;;;;;37.00;17.17;;;;;;;25.62;100.00;101227.45;1782497;78;21041;-86
2021/07/25 18:00:29;;;;;;;34.10;18.35;;;;;;;25.50;100.00;101225.38;1808381;78;20986;-88
2021/07/25 18:02:56;;;;;;;41.28;18.27;;;;;;;25.40;100.00;101228.92;1835726;77;21497;-89
2021/07/25 18:05:23;;;;;;;38.73;23.10;;;;;;;25.31;100.00;101229.59;1739213;81;21049;-91
2021/07/25 18:07:52;;;;;;;45.40;26.12;;;;;;;25.23;100.00;101232.42;1840436;77;20975;-89
2021/07/25 18:10:19;;;;;;;47.70;29.35;;;;;;;25.14;100.00;101234.93;1769768;81;21844;-87
2021/07/25 18:12:46;;;;;;;52.10;31.25;;;;;;;25.07;100.00;101233.55;1840910;77;21474;-90
2021/07/25 18:15:13;;;;;;;74.70;44.27;;;;;;;25.01;100.00;101233.02;1754574;81;21066;-88
2021/07/25 18:17:40;;;;;;;78.97;45.50;;;;;;;24.94;100.00;101240.15;1777691;78;21068;-90
2021/07/25 18:20:09;;;;;;;79.27;52.20;;;;;;;24.89;100.00;101237.55;1825787;77;21027;-86
2021/07/25 18:22:36;;;;;;;78.37;56.35;;;;;;;24.84;100.00;101239.14;1808181;78;21124;-86
2021/07/25 18:25:03;;;;;;;75.70;53.02;;;;;;;24.78;100.00;101244.77;1806592;77;21021;-92
2021/07/25 18:27:30;;;;;;;72.85;53.40;;;;;;;24.72;100.00;101243.70;1813855;77;20982;-88
2021/07/25 18:29:57;;;;;;;110.85;83.47;;;;;;;24.66;100.00;101248.44;1807953;78;21093;-88
2021/07/25 18:32:25;;;;;;;91.32;67.35;;;;;;;24.60;100.00;101243.05;1788179;78;21090;-86
2021/07/25 18:34:52;;;;;;;88.75;61.45;;;;;;;24.56;100.00;101245.28;1807479;78;21069;-90
2021/07/25 18:37:19;;;;;;;83.58;57.33;;;;;;;24.52;100.00;101248.84;1784924;78;21091;-86
2021/07/25 18:39:46;;;;;;;69.00;50.78;;;;;;;24.47;100.00;101245.94;1770817;79;21407;-91
2021/07/25 18:42:13;;;;;;;64.70;46.75;;;;;;;24.40;100.00;101252.53;1770641;79;21060;-88
2021/07/25 18:44:40;;;;;;;52.17;38.05;;;;;;;24.35;100.00;101248.79;1803308;77;20907;-89
2021/07/25 18:47:07;;;;;;;43.30;30.95;;;;;;;24.28;100.00;101255.38;1728758;81;21482;-85
2021/07/25 18:49:35;;;;;;;40.78;25.02;;;;;;;24.22;100.00;101250.34;1776260;79;21342;-90
2021/07/25 18:52:02;;;;;;;32.63;26.20;;;;;;;24.15;100.00;101253.44;1807815;79;21042;-83
2021/07/25 18:54:29;;;;;;;34.65;24.90;;;;;;;24.09;100.00;101255.51;1808500;79;21069;-88
2021/07/25 18:56:56;;;;;;;40.38;25.60;;;;;;;24.03;100.00;101253.13;1811484;77;21458;-85
2021/07/25 18:59:23;;;;;;;39.03;25.65;;;;;;;23.97;100.00;101254.37;1813063;79;21034;-84
2021/07/25 19:01:50;;;;;;;40.40;26.60;;;;;;;23.94;100.00;101260.90;1793311;79;20944;-85
2021/07/25 19:04:17;;;;;;;41.23;26.20;;;;;;;23.90;100.00;101253.77;1793197;77;21546;-85
2021/07/25 19:06:44;;;;;;;42.85;28.17;;;;;;;23.88;100.00;101261.59;1811998;77;21122;-87
2021/07/25 19:09:11;;;;;;;49.65;30.62;;;;;;;23.83;100.00;101260.02;1808117;78;21534;-88
2021/07/25 19:11:39;;;;;;;39.75;28.57;;;;;;;23.75;100.00;101259.12;1781527;78;21050;-83
2021/07/25 19:14:06;;;;;;;38.48;28.55;;;;;;;23.71;100.00;101263.18;1772127;79;21631;-85
2021/07/25 19:16:33;;;;;;;45.28;30.32;;;;;;;23.63;100.00;101261.44;1810279;77;20927;-90
2021/07/25 19:19:00;;;;;;;39.73;26.93;;;;;;;23.56;100.00;101260.54;1813714;77;21158;-87
2021/07/25 19:21:27;;;;;;;33.50;25.32;;;;;;;23.51;100.00;101260.28;1813029;78;21497;-87
2021/07/25 19:23:54;;;;;;;37.28;27.62;;;;;;;23.46;100.00;101260.00;1776690;79;20959;-89
2021/07/25 19:26:26;;;;;;;35.45;27.32;;;;;;;23.43;100.00;101257.73;1786580;78;20986;-90
2021/07/25 19:28:53;;;;;;;47.78;34.73;;;;;;;23.44;100.00;101254.88;1820885;77;21024;-88
2021/07/25 19:31:24;;;;;;;66.05;40.23;;;;;;;23.44;100.00;101254.03;1784632;79;21125;-91
2021/07/25 19:33:53;;;;;;;68.70;44.08;;;;;;;23.44;100.00;101260.68;1810340;78;21054;-86
2021/07/25 19:36:22;;;;;;;83.50;49.23;;;;;;;23.43;100.00;101258.54;1790566;78;21021;-88
2021/07/25 19:38:51;;;;;;;85.35;53.48;;;;;;;23.43;100.00;101262.53;1729248;81;21125;-86
2021/07/25 19:41:18;;;;;;;81.63;51.10;;;;;;;23.45;100.00;101267.64;1755422;81;21569;-88
2021/07/25 19:43:45;;;;;;;67.95;43.92;;;;;;;23.45;100.00;101261.00;1811357;78;21892;-86
2021/07/25 19:46:12;;;;;;;66.75;41.08;;;;;;;23.41;100.00;101270.37;1772650;78;22163;-89
2021/07/25 19:48:41;;;;;;;56.63;34.33;;;;;;;23.37;100.00;101265.93;1748762;80;21014;-85
2021/07/25 19:51:08;;;;;;;42.17;27.27;;;;;;;23.35;100.00;101265.28;1782796;78;21093;-87
2021/07/25 19:53:37;;;;;;;31.05;21.95;;;;;;;23.34;100.00;101273.45;1782993;78;21010;-89
2021/07/25 19:56:05;;;;;;;25.27;17.40;;;;;;;23.29;100.00;101273.48;1803147;78;21628;-87
2021/07/25 19:58:36;;;;;;;24.65;15.70;;;;;;;23.24;100.00;101276.36;1781327;78;21038;-88
2021/07/25 20:01:03;;;;;;;20.43;15.38;;;;;;;23.15;100.00;101272.95;1824670;78;21053;-86
2021/07/25 20:03:30;;;;;;;26.77;15.50;;;;;;;23.07;100.00;101276.53;1776568;79;21426;-88
2021/07/25 20:05:58;;;;;;;22.32;14.70;;;;;;;23.03;100.00;101274.42;1791639;78;21085;-89
2021/07/25 20:08:27;;;;;;;19.92;14.30;;;;;;;22.96;100.00;101281.77;1780141;79;21052;-87
2021/07/25 20:11:01;;;;;;;20.95;15.38;;;;;;;22.88;100.00;101284.49;1772546;79;21006;-87
2021/07/25 20:13:28;;;;;;;20.68;15.25;;;;;;;22.81;100.00;101284.41;1810851;78;20938;-87
2021/07/25 20:15:57;;;;;;;31.85;16.23;;;;;;;22.76;100.00;101282.78;1779301;79;20983;-91
2021/07/25 20:18:27;;;;;;;36.03;17.50;;;;;;;22.72;100.00;101280.18;1779115;79;21018;-89